createdAt,value
2019-02-16T00:01:37.943Z,102132.22
2019-02-16T00:04:15.614Z,102137.74
2019-02-16T00:06:50.660Z,102125.77
2019-02-16T00:09:32.351Z,102125.13
2019-02-16T00:12:07.138Z,102123.55
2019-02-16T00:14:38.499Z,102124.92
2019-02-16T00:17:10.960Z,102125.67
2019-02-16T00:19:43.430Z,102126.06
2019-02-16T00:22:33.041Z,102127.20
2019-02-16T00:25:07.343Z,102122.28
2019-02-16T00:27:42.992Z,102118.23
2019-02-16T00:30:22.088Z,102119.58
2019-02-16T00:32:55.987Z,102120.72
2019-02-16T00:35:30.567Z,102121.01
2019-02-16T00:38:06.388Z,102116.88
2019-02-16T00:40:43.529Z,102117.93
2019-02-16T00:43:24.241Z,102105.23
2019-02-16T00:46:09.969Z,102109.08
2019-02-16T00:48:40.765Z,102109.77
2019-02-16T00:51:20.403Z,102109.38
2019-02-16T00:53:47.453Z,102106.55
2019-02-16T00:56:24.824Z,102103.20
2019-02-16T00:59:02.394Z,102107.13
2019-02-16T01:01:39.811Z,102103.64
2019-02-16T01:04:20.905Z,102099.59
2019-02-16T01:07:14.428Z,102103.64
2019-02-16T01:10:03.638Z,102101.72
2019-02-16T01:13:02.849Z,102103.41
2019-02-16T01:15:50.002Z,102103.61
2019-02-16T01:18:54.997Z,102103.95
2019-02-16T01:21:51.629Z,102089.57
2019-02-16T01:24:29.027Z,102104.64
2019-02-16T01:27:19.018Z,102097.67
2019-02-16T01:29:55.907Z,102091.96
2019-02-16T01:32:55.855Z,102087.44
2019-02-16T01:35:44.251Z,102085.42
2019-02-16T01:42:19.914Z,102083.39
2019-02-16T01:45:06.661Z,102089.88
2019-02-16T01:48:17.304Z,102087.33
2019-02-16T01:54:14.627Z,102070.58
2019-02-16T01:57:01.243Z,102070.19
2019-02-16T01:59:55.885Z,102071.15
2019-02-16T02:02:59.747Z,102065.26
2019-02-16T02:05:54.421Z,102054.48
2019-02-16T02:08:55.794Z,102046.20
2019-02-16T02:11:36.299Z,102054.43
2019-02-16T02:17:29.855Z,102052.15
2019-02-16T02:23:22.658Z,102049.34
2019-02-16T02:26:09.663Z,102043.72
2019-02-16T02:29:19.048Z,102040.08
2019-02-16T02:32:22.442Z,102039.55
2019-02-16T02:38:37.393Z,102026.06
2019-02-16T02:44:43.536Z,102031.37
2019-02-16T02:47:33.061Z,102024.63
2019-02-16T02:50:54.562Z,102021.20
2019-02-16T02:53:53.354Z,102012.22
2019-02-16T02:57:20.487Z,102014.75
2019-02-16T03:00:34.081Z,102022.05
2019-02-16T03:03:20.744Z,102017.92
2019-02-16T03:06:44.218Z,102018.24
2019-02-16T03:09:35.900Z,102020.06
2019-02-16T03:12:10.559Z,102017.69
2019-02-16T03:14:54.065Z,102025.21
2019-02-16T03:17:36.704Z,102021.65
2019-02-16T03:20:27.960Z,102027.31
2019-02-16T03:23:42.804Z,102021.88
2019-02-16T03:26:56.068Z,102015.61
2019-02-16T03:30:31.125Z,102013.51
2019-02-16T03:33:51.374Z,102011.66
2019-02-16T03:37:26.467Z,102014.11
2019-02-16T03:40:02.860Z,102004.30
2019-02-16T03:42:45.311Z,102003.06
2019-02-16T03:46:00.744Z,101999.85
2019-02-16T03:52:15.714Z,102004.70
2019-02-16T03:55:03.214Z,101999.18
2019-02-16T03:57:55.157Z,101999.95
2019-02-16T04:00:50.547Z,102007.28
2019-02-16T04:03:39.040Z,102015.14
2019-02-16T04:06:37.804Z,102025.72
2019-02-16T04:09:33.459Z,102025.99
2019-02-16T04:12:08.468Z,102024.96
2019-02-16T04:15:21.371Z,102026.98
2019-02-16T04:25:25.068Z,102026.23
2019-02-16T04:31:27.041Z,102025.12
2019-02-16T04:34:52.012Z,102030.63
2019-02-16T04:37:32.618Z,102031.70
2019-02-16T04:40:44.494Z,102027.89
2019-02-16T04:46:38.775Z,102030.48
2019-02-16T04:49:39.112Z,102024.77
2019-02-16T04:55:34.857Z,102019.11
2019-02-16T04:58:34.195Z,102022.12
2019-02-16T05:01:22.684Z,102016.81
2019-02-16T05:04:32.601Z,102018.91
2019-02-16T05:08:02.408Z,102014.00
2019-02-16T05:11:11.222Z,102020.61
2019-02-16T05:13:59.346Z,102015.23
2019-02-16T05:17:04.521Z,102020.03
2019-02-16T05:30:24.375Z,102015.33
2019-02-16T05:33:34.548Z,102017.19
2019-02-16T05:36:23.163Z,102023.73
2019-02-16T05:42:20.139Z,102020.26
2019-02-16T05:45:08.688Z,102014.00
2019-02-16T05:51:15.358Z,102012.70
2019-02-16T05:54:26.130Z,102007.08
2019-02-16T05:56:43.999Z,102002.36
2019-02-16T05:59:54.066Z,101999.50
2019-02-16T06:05:40.988Z,102005.61
2019-02-16T06:08:12.380Z,102011.39
2019-02-16T06:13:43.090Z,102013.92
2019-02-16T06:16:19.248Z,102008.58
2019-02-16T06:19:28.888Z,102007.70
2019-02-16T06:23:03.891Z,102008.22
2019-02-16T06:25:54.381Z,102009.36
2019-02-16T06:29:02.136Z,102006.55
2019-02-16T06:32:09.335Z,102005.20
2019-02-16T06:37:44.687Z,102016.41
2019-02-16T06:44:26.952Z,102006.63
2019-02-16T06:48:02.218Z,102018.08
2019-02-16T06:51:24.839Z,102017.75
2019-02-16T06:57:00.403Z,102020.06
2019-02-16T06:59:50.258Z,102019.75
2019-02-16T07:02:47.737Z,102025.52
2019-02-16T07:09:28.829Z,102031.55
2019-02-16T07:12:13.511Z,102036.77
2019-02-16T07:15:16.353Z,102039.71
2019-02-16T07:18:40.049Z,102048.30
2019-02-16T07:21:41.006Z,102048.62
2019-02-16T07:24:59.960Z,102060.30
2019-02-16T07:28:07.265Z,102065.89
2019-02-16T07:31:09.231Z,102068.62
2019-02-16T07:37:18.299Z,102064.55
2019-02-16T07:43:36.968Z,102065.06
2019-02-16T07:46:34.499Z,102063.63
2019-02-16T07:50:02.881Z,102065.77
2019-02-16T07:53:20.241Z,102058.31
2019-02-16T07:56:30.716Z,102054.63
2019-02-16T07:59:46.013Z,102039.02
2019-02-16T08:06:17.843Z,102051.86
2019-02-16T08:09:37.518Z,102051.60
2019-02-16T08:16:08.481Z,102066.01
2019-02-16T08:19:15.581Z,102075.78
2019-02-16T08:24:16.612Z,102081.89
2019-02-16T08:29:24.202Z,102081.64
2019-02-16T08:32:47.308Z,102074.03
2019-02-16T08:36:10.489Z,102064.54
2019-02-16T08:39:33.404Z,102075.26
2019-02-16T08:43:29.636Z,102078.73
2019-02-16T08:46:55.744Z,102079.84
2019-02-16T08:50:35.994Z,102075.69
2019-02-16T09:00:44.800Z,102072.42
2019-02-16T09:04:35.817Z,102076.86
2019-02-16T09:07:57.805Z,102067.14
2019-02-16T09:11:23.118Z,102068.25
2019-02-16T09:19:24.357Z,102053.19
2019-02-16T09:34:27.937Z,102038.88
2019-02-16T09:38:15.008Z,102051.13
2019-02-16T09:44:38.123Z,102052.31
2019-02-16T09:52:07.594Z,102058.63
2019-02-16T09:59:01.221Z,102046.59
2019-02-16T10:02:43.396Z,102051.97
2019-02-16T10:09:46.019Z,102049.55
2019-02-16T10:12:52.916Z,102045.91
2019-02-16T10:24:24.608Z,102055.09
2019-02-16T10:27:49.863Z,102054.78
2019-02-16T10:31:15.955Z,102048.84
2019-02-16T10:34:45.700Z,102041.90
2019-02-16T10:46:17.813Z,102053.37
2019-02-16T11:35:20.427Z,102032.39
2019-02-16T11:38:40.219Z,102039.20
2019-02-16T11:41:52.677Z,102016.44
2019-02-16T11:44:49.108Z,102039.16
2019-02-16T11:47:41.989Z,102037.63
2019-02-16T11:51:03.803Z,102025.96
2019-02-16T11:54:45.218Z,102025.20
2019-02-16T11:58:17.567Z,102026.87
2019-02-16T12:01:30.436Z,102027.55
2019-02-16T12:04:35.567Z,102022.19
2019-02-16T12:07:57.722Z,102027.68
2019-02-16T12:11:10.777Z,102025.47
2019-02-16T12:14:40.981Z,102023.11
2019-02-16T12:17:39.555Z,102022.41
2019-02-16T12:20:33.468Z,102023.14
2019-02-16T12:23:22.634Z,102014.94
2019-02-16T12:26:54.701Z,102015.57
2019-02-16T12:30:05.435Z,102005.53
2019-02-16T12:32:59.894Z,102014.77
2019-02-16T12:35:50.483Z,102006.11
2019-02-16T12:38:46.155Z,102010.36
2019-02-16T12:42:27.376Z,102008.77
2019-02-16T12:45:36.307Z,102014.75
2019-02-16T12:52:12.515Z,102015.37
2019-02-16T12:55:14.599Z,102007.72
2019-02-16T12:58:38.923Z,102003.04
2019-02-16T13:01:32.985Z,101999.16
2019-02-16T13:04:38.386Z,102000.59
2019-02-16T13:11:25.573Z,101989.55
2019-02-16T13:14:33.641Z,101992.57
2019-02-16T13:17:32.079Z,101990.80
2019-02-16T13:20:25.653Z,101987.48
2019-02-16T13:24:06.855Z,101980.50
2019-02-16T13:27:11.341Z,101981.36
2019-02-16T13:30:00.784Z,101986.86
2019-02-16T13:32:54.314Z,101984.72
2019-02-16T13:36:04.803Z,101977.88
2019-02-16T13:39:10.180Z,101982.49
2019-02-16T13:41:59.749Z,101977.27
2019-02-16T13:44:51.831Z,101982.49
2019-02-16T13:47:37.467Z,101981.48
2019-02-16T13:50:29.512Z,101982.89
2019-02-16T13:53:30.109Z,101985.94
2019-02-16T13:56:29.862Z,101986.63
2019-02-16T13:59:23.323Z,101984.83
2019-02-16T14:02:35.625Z,101983.16
2019-02-16T14:05:50.643Z,101988.80
2019-02-16T14:08:41.130Z,101992.87
2019-02-16T14:11:32.061Z,101995.91
2019-02-16T14:14:35.485Z,101990.23
2019-02-16T14:17:37.989Z,101996.83
2019-02-16T14:20:23.018Z,101991.61
2019-02-16T14:23:19.731Z,101989.14
2019-02-16T14:26:06.849Z,101994.36
2019-02-16T14:28:53.638Z,101992.31
2019-02-16T14:31:56.103Z,101995.66
2019-02-16T14:37:39.856Z,101988.89
2019-02-16T14:40:23.007Z,101988.87
2019-02-16T14:43:01.689Z,101994.16
2019-02-16T14:45:44.989Z,101984.28
2019-02-16T14:48:26.912Z,101988.61
2019-02-16T14:51:17.454Z,101988.25
2019-02-16T14:53:50.600Z,101995.03
2019-02-16T14:56:38.942Z,101995.17
2019-02-16T14:59:18.668Z,101994.80
2019-02-16T15:02:14.686Z,101988.89
2019-02-16T15:04:56.681Z,101992.94
2019-02-16T15:07:29.836Z,101994.03
2019-02-16T15:10:32.081Z,101988.48
2019-02-16T15:13:12.486Z,101988.89
2019-02-16T15:15:51.727Z,101996.09
2019-02-16T15:18:52.499Z,101999.41
2019-02-16T15:21:32.457Z,101988.84
2019-02-16T15:24:07.349Z,101992.31
2019-02-16T15:26:43.203Z,101980.16
2019-02-16T15:29:15.704Z,101981.52
2019-02-16T15:31:51.161Z,101975.60
2019-02-16T15:34:54.938Z,101977.29
2019-02-16T15:37:25.075Z,101977.50
2019-02-16T15:40:25.332Z,101972.79
2019-02-16T15:42:58.273Z,101974.09
2019-02-16T15:45:36.140Z,101972.19
2019-02-16T15:48:13.377Z,101966.60
2019-02-16T15:51:02.585Z,101971.38
2019-02-16T15:53:57.854Z,101968.13
2019-02-16T15:56:37.541Z,101962.47
2019-02-16T15:59:34.837Z,101959.94
2019-02-16T16:02:00.974Z,101951.73
2019-02-16T16:04:40.865Z,101956.42
2019-02-16T16:07:17.637Z,101954.89
2019-02-16T16:10:33.579Z,101949.42
2019-02-16T16:13:21.688Z,101956.48
2019-02-16T16:16:31.217Z,101954.30
2019-02-16T16:19:27.763Z,101956.97
2019-02-16T16:22:22.633Z,101960.52
2019-02-16T16:25:27.876Z,101957.47
2019-02-16T16:28:34.108Z,101965.15
2019-02-16T16:31:43.781Z,101958.59
2019-02-16T16:34:44.809Z,101958.14
2019-02-16T16:37:54.661Z,101956.66
2019-02-16T16:41:00.926Z,101959.85
2019-02-16T16:43:55.362Z,101958.00
2019-02-16T16:47:01.724Z,101961.05
2019-02-16T16:50:16.820Z,101960.55
2019-02-16T16:53:01.171Z,101955.02
2019-02-16T16:56:28.394Z,101952.70
2019-02-16T16:59:18.117Z,101950.09
2019-02-16T17:02:00.234Z,101960.50
2019-02-16T17:04:58.832Z,101963.95
2019-02-16T17:07:39.133Z,101965.29
2019-02-16T17:13:56.305Z,101976.73
2019-02-16T17:16:50.212Z,101974.41
2019-02-16T17:19:57.224Z,101970.19
2019-02-16T17:22:54.873Z,101970.67
2019-02-16T17:25:53.608Z,101972.12
2019-02-16T17:29:00.527Z,101965.79
2019-02-16T17:32:03.241Z,101961.83
2019-02-16T17:34:52.394Z,101964.89
2019-02-16T17:37:43.595Z,101969.14
2019-02-16T17:40:38.226Z,101975.63
2019-02-16T17:43:29.447Z,101976.11
2019-02-16T17:46:39.676Z,101984.41
2019-02-16T17:49:44.509Z,101980.27
2019-02-16T17:52:37.419Z,101992.50
2019-02-16T17:55:37.200Z,101990.72
2019-02-16T17:58:42.467Z,101989.80
2019-02-16T18:01:27.394Z,101989.81
2019-02-16T18:04:15.591Z,101986.31
2019-02-16T18:07:13.450Z,101983.81
2019-02-16T18:09:58.061Z,101987.33
2019-02-16T18:12:50.055Z,101991.53
2019-02-16T18:15:31.653Z,101992.02
2019-02-16T18:18:21.504Z,101987.74
2019-02-16T18:21:08.383Z,101998.44
2019-02-16T18:24:11.663Z,102002.23
2019-02-16T18:27:11.073Z,102001.58
2019-02-16T18:29:56.525Z,101998.84
2019-02-16T18:32:50.169Z,101997.73
2019-02-16T18:36:04.495Z,101993.14
2019-02-16T18:39:10.316Z,101995.80
2019-02-16T18:41:59.820Z,101991.39
2019-02-16T18:44:46.661Z,101991.25
2019-02-16T18:47:42.166Z,101992.88
2019-02-16T18:50:31.839Z,101990.59
2019-02-16T18:53:15.729Z,101988.05
2019-02-16T18:59:49.580Z,101991.72
2019-02-16T19:02:47.368Z,101984.50
2019-02-16T19:05:40.554Z,101990.28
2019-02-16T19:08:44.776Z,101990.97
2019-02-16T19:11:38.292Z,101984.62
2019-02-16T19:14:27.217Z,101994.20
2019-02-16T19:17:19.578Z,101997.10
2019-02-16T19:20:40.176Z,101988.59
2019-02-16T19:23:41.145Z,101987.83
2019-02-16T19:26:55.094Z,101996.69
2019-02-16T19:30:19.082Z,101986.37
2019-02-16T19:33:21.069Z,101990.78
2019-02-16T19:36:19.387Z,101985.83
2019-02-16T19:39:34.045Z,101989.87
2019-02-16T19:42:19.836Z,101991.64
2019-02-16T19:45:39.887Z,101989.82
2019-02-16T19:48:51.888Z,101990.06
2019-02-16T19:51:59.245Z,101994.01
2019-02-16T19:55:08.629Z,101989.91
2019-02-16T19:58:02.180Z,101989.42
2019-02-16T20:01:18.587Z,101982.30
2019-02-16T20:04:25.536Z,101983.27
2019-02-16T20:07:34.571Z,101969.78
2019-02-16T20:16:50.769Z,101971.40
2019-02-16T20:19:56.398Z,101976.56
2019-02-16T20:22:45.474Z,101976.16
2019-02-16T20:26:44.068Z,101973.22
2019-02-16T20:29:00.354Z,101967.98
2019-02-16T20:32:03.859Z,101970.76
2019-02-16T20:34:56.047Z,101980.55
2019-02-16T20:38:33.664Z,101974.77
2019-02-16T20:41:47.075Z,101980.13
2019-02-16T20:47:34.851Z,101989.13
2019-02-16T20:50:38.309Z,101997.84
2019-02-16T20:53:38.426Z,101997.09
2019-02-16T20:56:27.076Z,102000.80
2019-02-16T20:59:48.205Z,102000.63
2019-02-16T21:02:40.375Z,101994.64
2019-02-16T21:05:43.359Z,101990.40
2019-02-16T21:09:00.660Z,101987.83
2019-02-16T21:12:14.358Z,101981.52
2019-02-16T21:14:58.339Z,101989.84
2019-02-16T21:17:50.908Z,101984.66
2019-02-16T21:21:21.306Z,101983.91
2019-02-16T21:24:22.238Z,101987.79
2019-02-16T21:27:45.127Z,101980.78
2019-02-16T21:37:27.926Z,101979.91
2019-02-16T21:43:54.470Z,101979.78
2019-02-16T21:47:19.117Z,101979.41
2019-02-16T21:50:34.940Z,101983.95
2019-02-16T21:54:01.318Z,101973.29
2019-02-16T21:57:03.503Z,101977.08
2019-02-16T21:59:57.996Z,101969.56
2019-02-16T22:03:50.512Z,101971.09
2019-02-16T22:10:29.868Z,101967.06
2019-02-16T22:16:42.236Z,101966.49
2019-02-16T22:19:49.860Z,101964.61
2019-02-16T22:22:44.607Z,101962.64
2019-02-16T22:26:09.827Z,101963.98
2019-02-16T22:32:10.837Z,101955.11
2019-02-16T22:35:04.840Z,101955.20
2019-02-16T22:38:13.832Z,101960.56
2019-02-16T22:40:58.375Z,101961.83
2019-02-16T22:43:54.831Z,101957.80
2019-02-16T22:46:43.365Z,101961.52
2019-02-16T22:49:23.125Z,101960.66
2019-02-16T22:52:06.465Z,101948.63
2019-02-16T22:54:52.551Z,101947.98
2019-02-16T22:57:31.841Z,101949.09
2019-02-16T23:00:18.190Z,101948.56
2019-02-16T23:03:01.775Z,101948.30
2019-02-16T23:05:49.431Z,101945.22
2019-02-16T23:08:28.666Z,101951.92
2019-02-16T23:11:48.528Z,101954.63
2019-02-16T23:14:37.483Z,101954.41
2019-02-16T23:17:28.112Z,101949.09
2019-02-16T23:20:20.763Z,101951.73
2019-02-16T23:22:51.533Z,101950.28
2019-02-16T23:25:23.121Z,101948.94
2019-02-16T23:29:07.466Z,101950.53
2019-02-16T23:31:27.042Z,101956.85
2019-02-16T23:37:42.225Z,101955.75
2019-02-16T23:40:27.209Z,101952.09
2019-02-16T23:42:56.254Z,101955.44
2019-02-16T23:46:06.443Z,101962.45
2019-02-16T23:49:08.748Z,101949.41
2019-02-16T23:55:17.461Z,101947.05
2019-02-16T23:58:18.511Z,101949.95
